Billings, MT (59101)

5:23 PM MDT on July 29, 2016 (GMT -0600)
Jupiter Sulphur | | Change Station

Elev 3114 ft 45.78 °N, 108.49 °W | Updated 6 minutes ago

Scattered Clouds
Scattered Clouds
87.9 °F
Feels Like 85 °F
N
6.0
Wind Variable Wind from NNE
Gusts 15.0 mph

Today
High -- | Low -- °F
--% Chance of Precip.
Yesterday
High -- | Low -- °F
Precip. -- in
Pressure 29.90 in
Visibility 10.0 miles
Clouds Scattered Clouds 8500 ft
Heat Index 85 °F
Dew Point 52 °F
Humidity 29%
Rainfall 0.00 in
Snow Depth Not available.
5:54 AM 8:45 PM
Waning Crescent, 18% visible
METAR KBIL 292253Z 05012KT 10SM SCT085 31/09 A3000 RMK AO2 SLP123 CB DSNT S SW W T03060094
Pressure 29.90 in
Visibility 10.0 miles
Clouds Scattered Clouds 8500 ft
Heat Index 85 °F
Dew Point 52 °F
Humidity 29%
Rainfall 0.00 in
Snow Depth Not available.
5:54 AM 8:45 PM
Waning Crescent, 18% visible
METAR KBIL 292253Z 05012KT 10SM SCT085 31/09 A3000 RMK AO2 SLP123 CB DSNT S SW W T03060094

10-Day Weather Forecast

Almanac

Astronomy

Jul. 29, 2016 Rise Set
Actual Time
Civil Twilight
Nautical Twilight
Astronomical Twilight
Moon
Length of Visible Light
Length of Day
Tomorrow will be .
, % of the Moon is Illuminated

Today's Extremes

State Highs State Lows

Community

WunderPhotos

Upload Photos

1,928,439 photos uploaded!

WunderBlog® & News

Nearby

Air Quality

  Air Quality AQ Index Pollutant
Not available.

Snow Depth

Station Depth Elevation

Earthquake Activity

City Distance Mag. Time & Date
Minimum magnitude displayed is 2.5.

Coastal Water Temperatures

Place Temperature

Stations

Nearby Weather Stations

Station Location Temp. Windchill Dew Point Humidity Wind Precip. Elev Updated Type
                   

Watches & Warnings

There are currently no watches in effect.